Aniak, Alaska
Current Conditions -  °F | °C
As of 1:36 PM on Monday 20 Oct 2014 (Local Time) from PANI Reporting Station
Overcast Overcast  
Wind Chill: 22°   Ceiling: 2300
Heat Index: 28°   Visibility: 10mi
Dew Point: 23°   Wind: 6mph
Humidity: 80%   Direction: 360°N
Pressure: 29.14"   Gusts: NA
Location:  61.58°N, 159.54°W
Report Text: PANI 202136Z AUTO 36005KT 10SM BKN023 OVC046 M02/M05 A2914 RMK AO1
Loading
Personal Weather Stations






























Interactive Weather Map
Tropical Storm Tracking
New forecast layout! Learn more

10-Day Weather Forecast

Advertisements
Track Severe Weather on mobile